Time,TemperatureF,DewpointF,PressureIn,WindDirection,WindDirectionDegrees,WindSpeedMPH,WindSpeedGustMPH,Humidity,HourlyPrecipIn,Conditions,Clouds,dailyrainin,SolarRadiationWatts/m^2,SoftwareType,DateUTC
2013-05-08 00:07:00,60.6,51.0,29.96,SE,142,0.0,0.0,70,0.00,,,0.00,0,weatherlink.com 1.10,2013-05-08 05:07:00,
2013-05-08 00:22:00,60.1,50.0,29.95,SE,142,1.0,2.0,70,0.00,,,0.00,0,weatherlink.com 1.10,2013-05-08 05:22:00,
2013-05-08 00:37:00,59.9,50.0,29.95,SE,142,0.0,1.0,71,0.00,,,0.00,0,weatherlink.com 1.10,2013-05-08 05:37:00,
2013-05-08 00:52:00,59.6,51.0,29.96,SE,142,0.0,1.0,72,0.00,,,0.00,0,weatherlink.com 1.10,2013-05-08 05:52:00,
2013-05-08 01:07:00,59.3,50.0,29.96,SE,142,1.0,1.0,72,0.00,,,0.00,0,weatherlink.com 1.10,2013-05-08 06:07:00,
2013-05-08 01:22:00,59.1,50.0,29.95,SE,142,0.0,1.0,73,0.00,,,0.00,0,weatherlink.com 1.10,2013-05-08 06:22:00,
2013-05-08 01:37:00,58.9,50.0,29.95,SE,142,0.0,1.0,73,0.00,,,0.00,0,weatherlink.com 1.10,2013-05-08 06:37:00,
2013-05-08 01:52:00,58.6,50.0,29.95,SE,142,0.0,1.0,74,0.00,,,0.00,0,weatherlink.com 1.10,2013-05-08 06:52:00,
2013-05-08 02:07:00,58.5,50.0,29.95,SE,142,0.0,0.0,74,0.00,,,0.00,0,weatherlink.com 1.10,2013-05-08 07:07:00,
2013-05-08 02:22:00,58.2,50.0,29.95,SE,142,0.0,0.0,74,0.00,,,0.00,0,weatherlink.com 1.10,2013-05-08 07:22:00,
2013-05-08 02:37:00,57.7,50.0,29.95,SE,142,0.0,0.0,76,0.00,,,0.00,0,weatherlink.com 1.10,2013-05-08 07:37:00,
2013-05-08 02:52:00,57.5,51.0,29.95,SE,142,1.0,2.0,78,0.00,,,0.00,0,weatherlink.com 1.10,2013-05-08 07:52:00,
2013-05-08 03:07:00,57.4,51.0,29.96,SE,142,0.0,2.0,79,0.00,,,0.00,0,weatherlink.com 1.10,2013-05-08 08:07:00,
2013-05-08 03:22:00,57.3,51.0,29.96,SE,142,0.0,1.0,80,0.00,,,0.00,0,weatherlink.com 1.10,2013-05-08 08:22:00,
2013-05-08 03:37:00,57.3,51.0,29.96,SE,142,0.0,2.0,80,0.00,,,0.00,0,weatherlink.com 1.10,2013-05-08 08:37:00,
2013-05-08 03:52:00,57.1,51.0,29.95,SE,142,0.0,0.0,80,0.00,,,0.00,0,weatherlink.com 1.10,2013-05-08 08:52:00,
2013-05-08 04:07:00,57.0,51.0,29.96,SE,142,0.0,0.0,81,0.00,,,0.00,0,weatherlink.com 1.10,2013-05-08 09:07:00,
2013-05-08 04:22:00,56.9,52.0,29.96,SE,142,0.0,1.0,82,0.00,,,0.00,0,weatherlink.com 1.10,2013-05-08 09:22:00,
2013-05-08 04:37:00,56.9,52.0,29.97,SE,142,0.0,2.0,82,0.00,,,0.00,0,weatherlink.com 1.10,2013-05-08 09:37:00,
2013-05-08 04:52:00,57.1,52.0,29.97,SE,142,1.0,2.0,82,0.00,,,0.00,0,weatherlink.com 1.10,2013-05-08 09:52:00,
2013-05-08 05:07:00,57.5,53.0,29.97,SE,142,0.0,2.0,84,0.00,,,0.00,0,weatherlink.com 1.10,2013-05-08 10:07:00,
2013-05-08 05:22:00,57.7,53.0,29.97,SE,142,1.0,4.0,85,0.00,,,0.00,0,weatherlink.com 1.10,2013-05-08 10:22:00,
2013-05-08 05:37:00,57.8,54.0,29.97,SE,142,1.0,4.0,87,0.02,,,0.02,0,weatherlink.com 1.10,2013-05-08 10:37:00,
2013-05-08 05:52:00,57.8,54.0,29.97,SE,142,0.0,1.0,88,0.03,,,0.03,0,weatherlink.com 1.10,2013-05-08 10:52:00,
2013-05-08 06:07:00,57.7,54.0,29.96,SE,142,0.0,0.0,88,0.05,,,0.05,0,weatherlink.com 1.10,2013-05-08 11:07:00,
2013-05-08 06:22:00,57.7,55.0,29.96,SE,142,0.0,1.0,89,0.07,,,0.07,0,weatherlink.com 1.10,2013-05-08 11:22:00,
2013-05-08 06:37:00,57.4,55.0,29.96,SE,142,0.0,2.0,90,0.05,,,0.07,0,weatherlink.com 1.10,2013-05-08 11:37:00,
2013-05-08 06:52:00,57.0,55.0,29.96,SE,142,0.0,2.0,91,0.03,,,0.07,7,weatherlink.com 1.10,2013-05-08 11:52:00,
2013-05-08 07:07:00,57.1,55.0,29.96,SE,142,1.0,3.0,92,0.02,,,0.07,16,weatherlink.com 1.10,2013-05-08 12:07:00,
2013-05-08 07:22:00,57.2,55.0,29.96,SE,142,0.0,1.0,92,0.00,,,0.07,39,weatherlink.com 1.10,2013-05-08 12:22:00,
2013-05-08 07:37:00,57.4,55.0,29.97,SE,142,0.0,1.0,92,0.01,,,0.08,49,weatherlink.com 1.10,2013-05-08 12:37:00,
2013-05-08 07:52:00,57.6,55.0,29.97,SE,142,0.0,2.0,92,0.01,,,0.08,51,weatherlink.com 1.10,2013-05-08 12:52:00,
2013-05-08 08:07:00,57.7,56.0,29.97,SE,142,1.0,2.0,93,0.01,,,0.08,70,weatherlink.com 1.10,2013-05-08 13:07:00,
2013-05-08 08:22:00,58.1,56.0,29.98,SE,142,0.0,0.0,93,0.01,,,0.08,67,weatherlink.com 1.10,2013-05-08 13:22:00,
2013-05-08 08:38:00,58.7,57.0,29.98,SE,142,0.0,0.0,93,0.00,,,0.08,76,weatherlink.com 1.10,2013-05-08 13:38:00,
2013-05-08 08:53:00,59.1,57.0,29.98,SE,142,0.0,2.0,93,0.00,,,0.08,130,weatherlink.com 1.10,2013-05-08 13:53:00,
2013-05-08 09:08:00,60.0,58.0,29.98,SE,142,1.0,4.0,92,0.00,,,0.08,174,weatherlink.com 1.10,2013-05-08 14:08:00,
2013-05-08 09:23:00,60.9,58.0,29.98,SE,142,1.0,4.0,91,0.00,,,0.08,181,weatherlink.com 1.10,2013-05-08 14:23:00,
2013-05-08 09:38:00,62.2,59.0,29.97,SE,142,1.0,6.0,89,0.00,,,0.08,448,weatherlink.com 1.10,2013-05-08 14:38:00,
2013-05-08 09:53:00,63.4,59.0,29.98,SE,142,0.0,5.0,85,0.00,,,0.08,139,weatherlink.com 1.10,2013-05-08 14:53:00,
2013-05-08 10:08:00,62.9,58.0,29.97,SE,145,0.0,2.0,85,0.00,,,0.08,160,weatherlink.com 1.10,2013-05-08 15:08:00,
2013-05-08 10:23:00,62.6,58.0,29.96,SE,146,2.0,6.0,86,0.00,,,0.08,142,weatherlink.com 1.10,2013-05-08 15:23:00,
2013-05-08 10:38:00,62.5,58.0,29.96,SE,145,2.0,7.0,85,0.00,,,0.08,179,weatherlink.com 1.10,2013-05-08 15:38:00,
2013-05-08 10:53:00,62.4,58.0,29.96,SE,144,4.0,8.0,85,0.00,,,0.08,146,weatherlink.com 1.10,2013-05-08 15:53:00,
2013-05-08 11:08:00,62.3,57.0,29.97,SSE,150,3.0,7.0,84,0.00,,,0.08,144,weatherlink.com 1.10,2013-05-08 16:08:00,
2013-05-08 11:23:00,63.2,58.0,29.95,South,169,0.0,8.0,84,0.00,,,0.08,369,weatherlink.com 1.10,2013-05-08 16:23:00,
2013-05-08 11:38:00,63.8,58.0,29.94,ESE,121,3.0,14.0,82,0.00,,,0.08,329,weatherlink.com 1.10,2013-05-08 16:38:00,
2013-05-08 11:53:00,66.1,60.0,29.94,East,86,2.0,12.0,81,0.00,,,0.08,916,weatherlink.com 1.10,2013-05-08 16:53:00,
2013-05-08 12:08:00,67.3,59.0,29.93,SW,235,5.0,14.0,75,0.00,,,0.08,721,weatherlink.com 1.10,2013-05-08 17:08:00,
2013-05-08 12:23:00,68.6,60.0,29.92,ESE,111,8.0,13.0,74,0.00,,,0.08,986,weatherlink.com 1.10,2013-05-08 17:23:00,
2013-05-08 12:38:00,69.9,60.0,29.93,SSW,201,2.0,12.0,70,0.00,,,0.08,687,weatherlink.com 1.10,2013-05-08 17:38:00,
2013-05-08 12:53:00,68.8,59.0,29.93,ENE,70,1.0,8.0,72,0.00,,,0.08,499,weatherlink.com 1.10,2013-05-08 17:53:00,
2013-05-08 13:08:00,70.4,58.0,29.93,SE,146,5.0,10.0,65,0.00,,,0.08,691,weatherlink.com 1.10,2013-05-08 18:08:00,
2013-05-08 13:23:00,70.4,58.0,29.92,East,96,16.0,16.0,64,0.00,,,0.08,860,weatherlink.com 1.10,2013-05-08 18:23:00,
2013-05-08 13:38:00,71.3,59.0,29.92,NNE,15,4.0,10.0,65,0.00,,,0.08,661,weatherlink.com 1.10,2013-05-08 18:38:00,
2013-05-08 13:53:00,72.3,60.0,29.92,East,93,8.0,8.0,65,0.00,,,0.08,752,weatherlink.com 1.10,2013-05-08 18:53:00,
2013-05-08 14:08:00,72.8,58.0,29.92,SW,225,4.0,13.0,60,0.00,,,0.08,758,weatherlink.com 1.10,2013-05-08 19:08:00,
2013-05-08 14:23:00,74.3,60.0,29.92,SW,234,4.0,14.0,61,0.00,,,0.08,937,weatherlink.com 1.10,2013-05-08 19:23:00,
2013-05-08 14:38:00,74.3,58.0,29.93,SE,144,3.0,14.0,57,0.00,,,0.08,886,weatherlink.com 1.10,2013-05-08 19:38:00,
2013-05-08 14:53:00,74.1,59.0,29.92,South,174,2.0,10.0,60,0.00,,,0.08,863,weatherlink.com 1.10,2013-05-08 19:53:00,
2013-05-08 15:08:00,74.4,60.0,29.91,East,90,6.0,8.0,61,0.00,,,0.08,763,weatherlink.com 1.10,2013-05-08 20:08:00,
2013-05-08 15:23:00,74.6,60.0,29.91,East,86,6.0,11.0,60,0.00,,,0.08,728,weatherlink.com 1.10,2013-05-08 20:23:00,
2013-05-08 15:39:00,74.6,59.0,29.90,SW,219,2.0,10.0,59,0.00,,,0.08,738,weatherlink.com 1.10,2013-05-08 20:39:00,
2013-05-08 15:54:00,74.0,58.0,29.90,ESE,115,2.0,10.0,57,0.00,,,0.08,438,weatherlink.com 1.10,2013-05-08 20:54:00,
2013-05-08 16:09:00,74.9,60.0,29.89,ESE,121,4.0,7.0,60,0.00,,,0.08,861,weatherlink.com 1.10,2013-05-08 21:09:00,
2013-05-08 16:24:00,75.0,60.0,29.88,SW,215,2.0,9.0,60,0.00,,,0.08,687,weatherlink.com 1.10,2013-05-08 21:24:00,
2013-05-08 16:39:00,74.5,59.0,29.88,NNE,32,1.0,11.0,58,0.00,,,0.08,657,weatherlink.com 1.10,2013-05-08 21:39:00,
2013-05-08 16:54:00,74.2,59.0,29.88,ESE,107,2.0,10.0,60,0.00,,,0.08,629,weatherlink.com 1.10,2013-05-08 21:54:00,
2013-05-08 17:09:00,73.1,60.0,29.88,East,92,11.0,11.0,63,0.00,,,0.08,142,weatherlink.com 1.10,2013-05-08 22:09:00,
2013-05-08 17:24:00,72.5,60.0,29.88,ESE,102,2.0,12.0,64,0.00,,,0.08,197,weatherlink.com 1.10,2013-05-08 22:24:00,
2013-05-08 17:39:00,72.6,59.0,29.89,SE,129,1.0,10.0,63,0.00,,,0.08,230,weatherlink.com 1.10,2013-05-08 22:39:00,
2013-05-08 17:54:00,73.2,60.0,29.88,South,173,1.0,8.0,63,0.00,,,0.08,327,weatherlink.com 1.10,2013-05-08 22:54:00,
2013-05-08 18:09:00,72.8,60.0,29.88,WNW,289,2.0,8.0,64,0.00,,,0.08,167,weatherlink.com 1.10,2013-05-08 23:09:00,
2013-05-08 18:24:00,72.1,60.0,29.87,WSW,245,1.0,7.0,66,0.00,,,0.08,148,weatherlink.com 1.10,2013-05-08 23:24:00,
2013-05-08 18:39:00,71.9,60.0,29.87,South,179,0.0,5.0,66,0.00,,,0.08,100,weatherlink.com 1.10,2013-05-08 23:39:00,
2013-05-08 18:54:00,71.7,60.0,29.87,East,88,0.0,5.0,67,0.00,,,0.08,62,weatherlink.com 1.10,2013-05-08 23:54:00,
2013-05-08 19:09:00,71.4,60.0,29.87,South,178,4.0,5.0,67,0.00,,,0.08,70,weatherlink.com 1.10,2013-05-09 00:09:00,
2013-05-08 19:24:00,71.3,60.0,29.87,East,88,1.0,5.0,67,0.00,,,0.08,42,weatherlink.com 1.10,2013-05-09 00:24:00,
2013-05-08 19:39:00,70.8,60.0,29.86,SSE,148,1.0,4.0,68,0.00,,,0.08,33,weatherlink.com 1.10,2013-05-09 00:39:00,
2013-05-08 19:54:00,70.6,60.0,29.86,SE,129,0.0,4.0,68,0.00,,,0.08,21,weatherlink.com 1.10,2013-05-09 00:54:00,
2013-05-08 20:09:00,70.3,60.0,29.85,ESE,113,2.0,3.0,69,0.00,,,0.08,5,weatherlink.com 1.10,2013-05-09 01:09:00,
2013-05-08 20:24:00,69.9,60.0,29.85,ESE,112,3.0,4.0,70,0.00,,,0.08,0,weatherlink.com 1.10,2013-05-09 01:24:00,
2013-05-08 20:39:00,69.7,60.0,29.86,ESE,111,0.0,4.0,70,0.00,,,0.08,0,weatherlink.com 1.10,2013-05-09 01:39:00,
2013-05-08 20:54:00,69.6,59.0,29.86,ESE,109,1.0,8.0,69,0.00,,,0.08,0,weatherlink.com 1.10,2013-05-09 01:54:00,
2013-05-08 21:09:00,69.4,59.0,29.86,ESE,113,5.0,8.0,69,0.00,,,0.08,0,weatherlink.com 1.10,2013-05-09 02:09:00,
2013-05-08 21:24:00,69.2,59.0,29.86,ESE,107,3.0,8.0,69,0.00,,,0.08,0,weatherlink.com 1.10,2013-05-09 02:24:00,
2013-05-08 21:39:00,69.0,58.0,29.86,East,86,1.0,8.0,69,0.00,,,0.08,0,weatherlink.com 1.10,2013-05-09 02:39:00,
2013-05-08 21:54:00,68.8,58.0,29.86,East,86,2.0,6.0,69,0.00,,,0.08,0,weatherlink.com 1.10,2013-05-09 02:54:00,
2013-05-08 22:09:00,68.6,58.0,29.86,ENE,74,2.0,6.0,68,0.00,,,0.08,0,weatherlink.com 1.10,2013-05-09 03:09:00,
2013-05-08 22:24:00,68.4,58.0,29.88,East,94,0.0,5.0,69,0.00,,,0.08,0,weatherlink.com 1.10,2013-05-09 03:24:00,
2013-05-08 22:39:00,67.1,60.0,29.90,WNW,300,4.0,6.0,77,0.07,,,0.15,0,weatherlink.com 1.10,2013-05-09 03:39:00,
2013-05-08 22:54:00,65.2,59.0,29.90,North,360,0.0,5.0,81,0.10,,,0.18,0,weatherlink.com 1.10,2013-05-09 03:54:00,
2013-05-08 23:09:00,63.7,59.0,29.89,NNE,27,1.0,4.0,85,0.10,,,0.18,0,weatherlink.com 1.10,2013-05-09 04:09:00,
2013-05-08 23:24:00,63.2,59.0,29.87,NNE,31,2.0,2.0,87,0.10,,,0.18,0,weatherlink.com 1.10,2013-05-09 04:24:00,
2013-05-08 23:39:00,63.0,59.0,29.87,NE,36,0.0,3.0,88,0.03,,,0.18,0,weatherlink.com 1.10,2013-05-09 04:39:00,
2013-05-08 23:54:00,62.8,59.0,29.87,NE,36,1.0,1.0,88,0.00,,,0.18,0,weatherlink.com 1.10,2013-05-09 04:54:00,